Time;durP1;ratioP1;P1;durP2;ratioP2;P2;SDS_P1;SDS_P2;PMS_P1;PMS_P2;Temp;Humidity;BMP_temperature;BMP_pressure;BME280_temperature;BME280_humidity;BME280_pressure;Samples;Min_cycle;Max_cycle;Signal;HPM_P1;HPM_P2
2021/06/29 00:00:58;;;;;;;10.27;3.99;;;;;;;19.51;64.34;99057.81;364849;106;2894926;-72
2021/06/29 00:02:10;;;;;;;7.14;3.69;;;;;;;19.61;64.50;99052.30;395753;104;1987909;-72
2021/06/29 00:03:16;;;;;;;7.79;3.60;;;;;;;19.45;64.67;99062.49;376435;106;1961782;-73
2021/06/29 00:04:29;;;;;;;7.32;4.07;;;;;;;19.58;64.86;99052.02;363302;109;2850956;-71
2021/06/29 00:05:37;;;;;;;5.29;3.58;;;;;;;19.44;64.72;99052.61;305323;111;2156016;-72
2021/06/29 00:06:42;;;;;;;7.99;4.02;;;;;;;19.44;65.07;99062.76;357071;111;1966046;-71
2021/06/29 00:07:55;;;;;;;8.89;3.96;;;;;;;19.54;65.09;99052.58;357129;104;2703013;-71
2021/06/29 00:09:00;;;;;;;9.48;3.62;;;;;;;19.41;65.32;99050.44;343794;106;1997990;-72
2021/06/29 00:10:13;;;;;;;7.53;4.11;;;;;;;19.51;65.44;99060.55;387953;104;2072873;-72
2021/06/29 00:11:18;;;;;;;6.24;3.90;;;;;;;19.36;65.53;99061.41;374063;107;1964050;-72
2021/06/29 00:12:24;;;;;;;7.16;3.99;;;;;;;19.37;65.41;99064.96;374781;107;1961832;-71
2021/06/29 00:13:29;;;;;;;8.10;3.61;;;;;;;19.35;65.45;99064.44;370264;107;1961944;-73
2021/06/29 00:14:35;;;;;;;10.62;4.27;;;;;;;19.32;65.58;99066.62;370516;109;1964988;-71
2021/06/29 00:16:07;;;;;;;6.81;4.27;;;;;;;19.38;66.16;99064.70;374100;103;1985886;-72
2021/06/29 00:17:12;;;;;;;7.33;4.01;;;;;;;19.27;65.76;99065.83;341299;105;2012896;-73
2021/06/29 00:18:17;;;;;;;8.04;3.82;;;;;;;19.24;65.93;99064.47;358265;105;1961943;-73
2021/06/29 00:19:29;;;;;;;7.51;4.52;;;;;;;19.36;66.17;99055.12;398448;104;1985971;-73
2021/06/29 00:20:35;;;;;;;8.34;4.15;;;;;;;19.25;66.09;99057.06;379833;105;1963006;-71
2021/06/29 00:21:48;;;;;;;6.12;4.03;;;;;;;19.33;66.14;99054.56;383334;106;2868955;-73
2021/06/29 00:22:53;;;;;;;7.28;4.10;;;;;;;19.20;66.57;99057.89;347213;109;1961911;-72
2021/06/29 00:23:58;;;;;;;8.72;3.88;;;;;;;19.22;66.28;99055.70;337387;109;1962049;-72
2021/06/29 00:25:12;;;;;;;8.91;3.89;;;;;;;19.30;66.31;99052.39;396978;104;1986928;-73
2021/06/29 00:26:26;;;;;;;8.69;4.41;;;;;;;19.28;66.46;99060.05;383099;109;1985971;-70
2021/06/29 00:27:50;;;;;;;7.65;4.23;;;;;;;19.16;66.35;99056.82;356811;112;1961981;-72
2021/06/29 00:29:02;;;;;;;8.06;4.38;;;;;;;19.27;66.51;99058.43;397033;104;1987013;-72
2021/06/29 00:30:26;;;;;;;6.68;3.94;;;;;;;19.14;66.85;99060.94;378771;106;1963950;-71
2021/06/29 00:31:50;;;;;;;7.24;3.76;;;;;;;19.11;66.55;99054.91;343186;106;2643979;-71
2021/06/29 00:32:56;;;;;;;6.77;3.63;;;;;;;19.11;66.91;99054.91;376675;108;1964067;-72
2021/06/29 00:34:08;;;;;;;10.39;4.34;;;;;;;19.23;66.90;99049.11;386920;104;1985869;-71
2021/06/29 00:35:15;;;;;;;9.86;4.31;;;;;;;19.13;66.72;99051.06;370463;108;1962859;-71
2021/06/29 00:36:27;;;;;;;6.79;4.20;;;;;;;19.22;67.03;99055.70;399059;104;1987018;-71
2021/06/29 00:37:33;;;;;;;6.72;4.12;;;;;;;19.11;67.01;99054.09;373775;105;1962033;-71
2021/06/29 00:38:56;;;;;;;7.45;4.02;;;;;;;19.10;66.96;99056.02;334757;107;2036988;-69
2021/06/29 00:40:04;;;;;;;8.62;3.94;;;;;;;19.09;66.98;99050.80;377826;107;1961895;-71
2021/06/29 00:41:36;;;;;;;8.03;4.48;;;;;;;19.19;67.16;99055.45;416955;99;1985917;-70
2021/06/29 00:42:42;;;;;;;7.67;3.93;;;;;;;19.06;67.22;99049.44;396663;101;1962024;-70
2021/06/29 00:43:50;;;;;;;7.66;3.83;;;;;;;19.06;67.08;99056.84;329798;102;2207981;-72
2021/06/29 00:45:05;;;;;;;8.85;4.16;;;;;;;19.18;67.09;99060.08;362302;101;2037984;-71
2021/06/29 00:46:10;;;;;;;7.31;3.69;;;;;;;19.05;67.00;99055.17;384168;103;1962048;-70
2021/06/29 00:47:17;;;;;;;7.43;4.32;;;;;;;19.04;67.26;99054.36;385380;103;1962016;-72
2021/06/29 00:48:23;;;;;;;7.56;4.07;;;;;;;19.06;67.25;99065.05;331251;108;2394944;-71
2021/06/29 00:49:36;;;;;;;6.87;4.23;;;;;;;19.14;67.53;99060.94;394351;104;2072044;-71
2021/06/29 00:50:44;;;;;;;7.49;4.66;;;;;;;19.01;67.24;99063.13;379576;105;1970038;-72
2021/06/29 00:51:56;;;;;;;5.93;3.86;;;;;;;19.13;67.47;99067.48;397555;104;1986074;-71
2021/06/29 00:53:02;;;;;;;6.06;3.96;;;;;;;18.98;67.40;99060.95;373876;107;1961963;-71
2021/06/29 00:54:09;;;;;;;6.26;4.29;;;;;;;18.95;67.70;99066.98;370608;107;1961923;-73
2021/06/29 00:55:22;;;;;;;6.85;3.74;;;;;;;19.04;67.91;99064.50;394600;104;1985904;-71
2021/06/29 00:56:27;;;;;;;10.82;4.32;;;;;;;18.92;67.72;99072.17;373282;107;1962070;-71
2021/06/29 00:57:42;;;;;;;7.11;4.68;;;;;;;19.02;68.01;99070.23;348942;104;2851865;-72
2021/06/29 00:58:48;;;;;;;6.59;4.41;;;;;;;18.90;67.64;99064.25;374674;107;1962059;-71
2021/06/29 01:00:14;;;;;;;8.25;4.46;;;;;;;18.89;67.66;99065.33;370905;109;1962083;-72
2021/06/29 01:01:26;;;;;;;7.03;3.94;;;;;;;18.99;67.81;99057.11;388430;104;1986755;-72
2021/06/29 01:02:32;;;;;;;6.43;4.04;;;;;;;18.88;67.77;99067.25;377847;107;1963005;-72
2021/06/29 01:03:46;;;;;;;7.43;4.21;;;;;;;18.97;68.02;99058.48;394997;104;1987216;-72
2021/06/29 01:04:51;;;;;;;7.91;4.68;;;;;;;18.86;68.11;99060.41;339365;109;2531077;-71
2021/06/29 01:05:57;;;;;;;6.50;4.57;;;;;;;18.86;68.06;99063.14;339312;107;1976972;-71
2021/06/29 01:07:11;;;;;;;7.02;3.97;;;;;;;18.96;68.20;99060.41;396146;103;1986047;-71
2021/06/29 01:08:17;;;;;;;7.84;4.26;;;;;;;18.83;68.02;99067.25;363346;107;2890197;-70
2021/06/29 01:09:22;;;;;;;8.09;4.09;;;;;;;18.82;68.00;99062.07;336176;107;2000955;-71
2021/06/29 01:10:34;;;;;;;6.36;4.29;;;;;;;18.92;68.13;99059.33;392624;104;1987000;-70
2021/06/29 01:11:40;;;;;;;6.41;4.19;;;;;;;18.82;68.43;99067.55;377833;107;1962068;-72
2021/06/29 01:12:45;;;;;;;7.11;4.41;;;;;;;18.81;68.46;99069.44;375992;107;1962022;-71
2021/06/29 01:13:50;;;;;;;6.97;4.05;;;;;;;18.80;68.13;99066.98;377204;107;1961924;-71
2021/06/29 01:14:56;;;;;;;6.73;4.40;;;;;;;18.77;68.40;99068.36;370289;107;1961060;-69
2021/06/29 01:16:09;;;;;;;6.74;4.59;;;;;;;18.87;68.59;99079.30;349706;104;2777983;-71
2021/06/29 01:17:15;;;;;;;7.66;4.93;;;;;;;18.75;68.47;99073.28;377834;106;1963999;-72
2021/06/29 01:18:20;;;;;;;6.76;4.19;;;;;;;18.73;68.72;99072.70;377713;107;1963948;-70
2021/06/29 01:20:51;;;;;;;8.38;4.27;;;;;;;18.86;68.57;99074.91;397377;104;1986015;-72
2021/06/29 01:22:16;;;;;;;7.82;4.64;;;;;;;18.76;68.36;99085.04;343512;107;1962977;-73
2021/06/29 01:23:29;;;;;;;7.67;4.32;;;;;;;18.86;68.50;99082.30;408183;101;1986978;-71
2021/06/29 01:24:35;;;;;;;9.50;4.86;;;;;;;18.74;68.50;99077.09;371415;105;2903997;-71
2021/06/29 01:26:19;;;;;;;8.01;4.39;;;;;;;18.75;68.33;99084.22;381218;103;1961998;-72
2021/06/29 01:31:08;;;;;;;6.78;4.36;;;;;;;18.73;68.29;99071.87;301304;106;2333964;-72
2021/06/29 01:32:21;;;;;;;6.60;4.74;;;;;;;18.85;68.47;99072.46;385926;106;1985982;-72
2021/06/29 01:33:27;;;;;;;7.57;4.92;;;;;;;18.72;68.35;99073.80;321062;110;2791048;-72
2021/06/29 01:34:39;;;;;;;6.95;4.17;;;;;;;18.85;68.49;99064.25;400996;104;1961937;-72
2021/06/29 01:35:44;;;;;;;8.37;4.31;;;;;;;18.71;68.42;99071.33;378703;105;1970016;-71
2021/06/29 01:37:08;;;;;;;7.32;4.56;;;;;;;18.70;68.41;99065.04;367508;105;1962954;-73
2021/06/29 01:38:19;;;;;;;7.03;4.59;;;;;;;18.70;68.47;99067.78;378838;107;1961979;-71
2021/06/29 01:39:32;;;;;;;7.58;4.52;;;;;;;18.79;68.60;99068.91;398441;104;1986064;-71
2021/06/29 01:40:38;;;;;;;6.93;4.38;;;;;;;18.67;68.74;99066.41;330938;105;2839998;-72
2021/06/29 01:41:43;;;;;;;9.91;4.69;;;;;;;18.65;68.81;99070.51;341457;105;1990966;-70
2021/06/29 01:42:58;;;;;;;8.19;4.61;;;;;;;18.78;68.78;99074.64;395471;104;1986012;-73
2021/06/29 01:44:18;;;;;;;6.57;4.07;;;;;;;18.67;68.53;99066.41;373928;106;1961916;-73
2021/06/29 01:45:29;;;;;;;7.97;4.84;;;;;;;18.77;68.76;99068.36;391904;104;2075004;-72
2021/06/29 01:46:38;;;;;;;7.23;4.30;;;;;;;18.66;68.67;99072.17;315972;107;2204039;-72
2021/06/29 01:48:52;;;;;;;6.60;3.99;;;;;;;18.66;68.68;99069.44;351365;109;1962023;-72
2021/06/29 01:50:01;;;;;;;8.87;4.61;;;;;;;18.66;68.73;99074.91;362784;110;1961889;-69
2021/06/29 01:51:13;;;;;;;7.09;4.47;;;;;;;18.76;68.99;99071.36;398994;104;1987026;-71
2021/06/29 01:52:19;;;;;;;8.42;5.08;;;;;;;18.66;68.87;99077.64;378184;105;1964035;-70
2021/06/29 01:53:25;;;;;;;8.63;4.82;;;;;;;18.66;68.95;99075.72;380525;105;1962082;-73
2021/06/29 01:54:37;;;;;;;9.50;4.86;;;;;;;18.77;68.92;99073.02;398561;103;2081091;-72
2021/06/29 01:55:43;;;;;;;7.59;4.66;;;;;;;18.66;68.97;99075.72;383635;105;1962030;-71
2021/06/29 01:56:56;;;;;;;7.25;4.61;;;;;;;18.78;69.16;99071.91;376814;104;1987937;-71
2021/06/29 01:58:03;;;;;;;9.08;4.97;;;;;;;18.64;69.20;99074.35;365016;106;1963028;-72
2021/06/29 01:59:19;;;;;;;6.16;4.23;;;;;;;18.74;69.15;99074.36;396455;103;1966998;-70
2021/06/29 02:00:29;;;;;;;8.30;4.26;;;;;;;18.75;68.94;99075.20;394855;104;1988800;-72
2021/06/29 02:01:52;;;;;;;7.18;4.92;;;;;;;18.63;69.10;99079.01;372604;105;1964018;-73
2021/06/29 02:02:58;;;;;;;6.86;4.78;;;;;;;18.65;68.79;99078.72;375794;105;1963057;-71
2021/06/29 02:04:11;;;;;;;7.29;4.44;;;;;;;18.77;68.92;99075.75;393740;104;2071987;-72
2021/06/29 02:05:17;;;;;;;7.35;4.63;;;;;;;18.66;68.80;99074.91;372913;107;1962035;-73
2021/06/29 02:06:28;;;;;;;7.59;4.54;;;;;;;18.78;68.85;99083.67;396207;104;1987057;-73
2021/06/29 02:07:34;;;;;;;9.82;5.53;;;;;;;18.67;68.94;99077.34;375617;106;1961782;-73
2021/06/29 02:08:57;;;;;;;7.57;4.73;;;;;;;18.72;68.81;99072.98;375263;106;1962064;-73
2021/06/29 02:10:11;;;;;;;8.34;4.86;;;;;;;18.86;68.68;99069.44;392724;104;2071783;-74
2021/06/29 02:11:16;;;;;;;8.42;4.59;;;;;;;18.77;68.59;99067.55;378705;105;1962961;-72
2021/06/29 02:12:29;;;;;;;10.25;4.96;;;;;;;18.86;68.52;99066.70;354617;101;2874249;-72
2021/06/29 02:13:35;;;;;;;7.29;4.83;;;;;;;18.78;68.44;99069.17;387695;103;1961936;-72
2021/06/29 02:14:59;;;;;;;7.31;4.46;;;;;;;18.79;68.50;99073.57;339254;103;2761019;-72
2021/06/29 02:16:32;;;;;;;9.02;5.22;;;;;;;18.90;68.44;99069.72;414094;99;1985982;-71
2021/06/29 02:17:38;;;;;;;7.86;4.86;;;;;;;18.80;68.28;99070.55;395539;101;1961988;-71
2021/06/29 02:18:44;;;;;;;7.12;4.67;;;;;;;18.83;68.32;99074.64;392475;101;1962014;-71
2021/06/29 02:19:56;;;;;;;9.86;4.99;;;;;;;18.94;68.36;99073.53;390643;106;1961963;-72
2021/06/29 02:21:01;;;;;;;8.18;5.32;;;;;;;18.84;68.24;99073.54;362834;111;1970044;-71
2021/06/29 02:22:07;;;;;;;8.56;5.02;;;;;;;18.85;68.21;99072.46;362757;109;1961898;-72
2021/06/29 02:23:19;;;;;;;10.86;5.14;;;;;;;18.98;68.14;99069.16;398832;104;1986962;-71
2021/06/29 02:24:25;;;;;;;6.83;4.44;;;;;;;18.89;68.09;99068.06;372080;107;1962043;-71
2021/06/29 02:25:37;;;;;;;6.66;4.13;;;;;;;19.00;68.06;99061.50;390157;104;1960991;-71
2021/06/29 02:26:42;;;;;;;10.46;4.85;;;;;;;18.91;68.02;99060.41;367215;105;1968784;-71
2021/06/29 02:28:06;;;;;;;7.24;4.63;;;;;;;18.92;68.07;99062.06;372849;109;1960820;-71
2021/06/29 02:29:12;;;;;;;7.16;4.42;;;;;;;18.94;68.03;99062.59;331269;104;2788715;-71
2021/06/29 02:30:18;;;;;;;8.03;4.48;;;;;;;18.95;67.88;99056.03;354032;106;1959848;-72
2021/06/29 02:31:30;;;;;;;8.86;5.34;;;;;;;19.08;67.87;99057.39;396969;104;2070940;-72
2021/06/29 02:32:35;;;;;;;9.60;4.62;;;;;;;18.99;67.83;99051.63;378997;105;1970021;-72
2021/06/29 02:33:40;;;;;;;8.67;5.17;;;;;;;19.00;67.89;99058.77;377820;105;1961923;-71
2021/06/29 02:34:53;;;;;;;9.36;4.57;;;;;;;19.13;67.78;99045.59;356332;101;2734848;-70
2021/06/29 02:35:58;;;;;;;7.93;4.84;;;;;;;19.03;67.67;99052.73;336901;105;2066956;-71
2021/06/29 02:37:10;;;;;;;9.29;5.01;;;;;;;19.17;67.64;99060.38;398123;104;1985477;-71
2021/06/29 02:38:16;;;;;;;8.33;5.01;;;;;;;19.05;67.59;99058.77;373377;105;1961962;-71
2021/06/29 02:39:21;;;;;;;9.74;4.96;;;;;;;19.10;67.60;99063.38;370799;107;1962044;-72
2021/06/29 02:40:34;;;;;;;10.29;5.16;;;;;;;19.22;67.55;99063.92;343615;104;2866929;-73
2021/06/29 02:41:40;;;;;;;7.24;4.79;;;;;;;19.11;67.57;99065.05;351129;107;1971037;-72
2021/06/29 02:43:15;;;;;;;7.97;4.86;;;;;;;19.23;67.39;99061.99;396938;103;1977937;-72
2021/06/29 02:44:21;;;;;;;9.79;5.02;;;;;;;19.13;67.48;99059.27;375037;107;1961976;-72
2021/06/29 02:45:44;;;;;;;8.08;5.26;;;;;;;19.13;67.32;99051.88;366490;107;2890091;-72
2021/06/29 02:46:50;;;;;;;7.51;4.41;;;;;;;19.16;67.29;99061.45;330274;107;2884076;-72
2021/06/29 02:48:04;;;;;;;8.22;5.04;;;;;;;19.26;67.37;99056.77;390142;106;1987009;-71
2021/06/29 02:49:10;;;;;;;8.89;5.71;;;;;;;19.19;67.27;99058.19;362732;109;1961846;-72
2021/06/29 02:50:22;;;;;;;19.85;6.04;;;;;;;19.31;67.36;99058.68;399396;104;1964912;-72
2021/06/29 02:51:28;;;;;;;16.26;5.88;;;;;;;19.21;67.34;99064.18;381542;105;1969996;-72
2021/06/29 02:52:52;;;;;;;17.57;6.58;;;;;;;19.22;67.26;99066.66;345472;105;2553015;-73
2021/06/29 02:54:04;;;;;;;10.97;5.31;;;;;;;19.34;67.28;99069.08;394365;104;1962913;-74
2021/06/29 02:55:11;;;;;;;12.49;5.37;;;;;;;19.24;67.19;99067.20;373341;106;1962092;-72
2021/06/29 02:57:44;;;;;;;8.58;4.89;;;;;;;19.25;67.18;99062.55;347324;105;1962797;-72
2021/06/29 02:58:49;;;;;;;9.53;5.06;;;;;;;19.27;67.13;99069.38;375069;105;1961965;-72
2021/06/29 03:00:08;;;;;;;7.21;5.21;;;;;;;19.39;67.16;99069.06;395088;104;1985985;-73
2021/06/29 03:01:21;;;;;;;7.91;5.07;;;;;;;19.43;67.23;99077.56;389074;106;1985971;-72
2021/06/29 03:02:45;;;;;;;8.21;4.81;;;;;;;19.35;67.03;99075.40;369006;108;1963963;-73
2021/06/29 03:03:50;;;;;;;8.16;5.62;;;;;;;19.40;66.90;99072.64;365775;108;1962165;-72
2021/06/29 03:04:55;;;;;;;8.48;4.97;;;;;;;19.44;66.76;99073.72;363001;110;1961936;-72
2021/06/29 03:06:01;;;;;;;7.98;4.92;;;;;;;19.50;66.61;99072.59;366495;110;1961987;-72
2021/06/29 03:07:13;;;;;;;9.47;5.00;;;;;;;19.66;66.39;99068.75;393359;104;1986898;-73
2021/06/29 03:08:18;;;;;;;7.38;5.12;;;;;;;19.58;66.47;99079.41;377550;106;1961823;-72
2021/06/29 03:09:30;;;;;;;7.47;5.15;;;;;;;19.74;66.30;99072.80;397664;104;1986960;-72
2021/06/29 03:10:36;;;;;;;12.39;5.22;;;;;;;19.69;66.09;99084.63;379469;105;1962029;-71
2021/06/29 03:11:52;;;;;;;10.63;4.83;;;;;;;19.88;65.92;99079.33;393577;106;1986912;-70
2021/06/29 03:12:57;;;;;;;9.39;5.63;;;;;;;19.81;65.81;99083.47;371506;109;1964955;-72
2021/06/29 03:14:21;;;;;;;11.09;5.48;;;;;;;19.81;65.82;99081.55;332080;110;1996926;-72
2021/06/29 03:15:33;;;;;;;8.92;5.74;;;;;;;19.96;65.71;99080.66;384800;106;2071841;-73
2021/06/29 03:16:39;;;;;;;9.29;4.59;;;;;;;19.86;65.71;99087.01;365938;108;1963977;-71
2021/06/29 03:17:44;;;;;;;10.20;4.73;;;;;;;19.87;65.71;99082.34;373986;107;1962042;-70
2021/06/29 03:18:50;;;;;;;7.74;5.08;;;;;;;19.90;65.56;99085.36;367507;107;1962041;-72
2021/06/29 03:20:22;;;;;;;8.91;5.42;;;;;;;20.04;65.45;99090.22;388348;103;1985989;-70
2021/06/29 03:21:28;;;;;;;9.03;5.16;;;;;;;19.93;65.31;99082.05;373645;107;1963918;-71
2021/06/29 03:22:33;;;;;;;7.66;5.14;;;;;;;19.95;65.38;99093.56;374975;107;1961976;-72
2021/06/29 03:23:47;;;;;;;10.11;5.48;;;;;;;20.08;65.37;99092.09;397698;101;2073013;-73
2021/06/29 03:24:52;;;;;;;9.21;4.64;;;;;;;19.98;65.33;99095.73;378789;106;1961930;-71
2021/06/29 03:26:04;;;;;;;8.23;5.89;;;;;;;20.11;65.23;99096.20;394488;104;1985827;-73
2021/06/29 03:27:09;;;;;;;8.42;5.37;;;;;;;20.01;65.18;99099.02;364619;108;1963084;-72
2021/06/29 03:28:33;;;;;;;9.08;5.18;;;;;;;20.03;65.12;99096.78;371184;107;1961983;-72
2021/06/29 03:29:40;;;;;;;9.10;5.46;;;;;;;20.06;65.05;99101.70;343865;112;1963048;-72
2021/06/29 03:30:52;;;;;;;10.52;5.43;;;;;;;20.19;64.95;99101.08;381357;106;2079888;-71
2021/06/29 03:31:57;;;;;;;8.74;5.63;;;;;;;20.10;64.89;99100.86;369235;109;1961923;-71
2021/06/29 03:33:04;;;;;;;7.75;5.13;;;;;;;20.13;64.89;99094.00;366087;109;1961920;-72
2021/06/29 03:34:10;;;;;;;7.40;5.22;;;;;;;20.17;64.60;99097.83;335285;109;2576989;-72
2021/06/29 03:35:15;;;;;;;9.85;5.60;;;;;;;20.21;64.54;99099.70;347147;109;1964917;-72
2021/06/29 03:36:35;;;;;;;8.41;5.45;;;;;;;20.33;64.67;99101.30;399323;104;1987913;-71
2021/06/29 03:37:41;;;;;;;8.38;5.91;;;;;;;20.26;64.45;99096.11;329409;105;2854904;-72
2021/06/29 03:38:54;;;;;;;9.16;5.31;;;;;;;20.40;64.19;99105.37;394585;104;1985965;-72
2021/06/29 03:39:59;;;;;;;7.19;4.81;;;;;;;20.28;64.27;99102.14;371548;109;1964006;-72
2021/06/29 03:41:23;;;;;;;8.56;4.87;;;;;;;20.28;64.41;99106.81;365222;108;1962012;-72
2021/06/29 03:42:28;;;;;;;9.75;5.09;;;;;;;20.27;64.51;99108.74;369998;107;1962065;-73
2021/06/29 03:43:41;;;;;;;9.34;5.08;;;;;;;20.39;64.26;99100.15;406041;101;1985781;-72
2021/06/29 03:44:46;;;;;;;7.89;5.06;;;;;;;20.29;64.44;99105.70;391976;103;1960998;-72
2021/06/29 03:45:59;;;;;;;11.30;5.21;;;;;;;20.41;64.19;99103.44;400290;101;2071983;-72
2021/06/29 03:47:05;;;;;;;8.83;5.46;;;;;;;20.30;63.98;99105.42;381327;103;1962030;-72
2021/06/29 03:48:28;;;;;;;8.43;4.99;;;;;;;20.31;63.97;99101.56;351841;107;1962084;-72
2021/06/29 03:49:34;;;;;;;8.59;4.66;;;;;;;20.36;63.69;99097.98;374528;107;1960847;-71
2021/06/29 03:50:46;;;;;;;10.69;6.30;;;;;;;20.52;63.23;99104.19;396193;104;2071850;-71
2021/06/29 03:51:53;;;;;;;9.99;5.99;;;;;;;20.43;63.36;99102.05;375710;105;1962003;-72
2021/06/29 03:52:59;;;;;;;9.66;5.43;;;;;;;20.47;63.33;99106.96;333206;108;2715039;-72
2021/06/29 03:54:05;;;;;;;10.89;5.56;;;;;;;20.52;63.44;99109.67;343398;107;1979022;-72
2021/06/29 03:55:11;;;;;;;9.88;5.39;;;;;;;20.56;63.19;99108.02;378412;105;1961916;-71
2021/06/29 03:56:23;;;;;;;9.93;5.10;;;;;;;20.58;63.04;99103.88;378508;105;1961896;-72
2021/06/29 03:57:35;;;;;;;8.02;5.42;;;;;;;20.79;62.89;99106.48;380398;104;1987568;-73
2021/06/29 03:58:41;;;;;;;7.41;4.61;;;;;;;20.72;62.68;99094.99;369911;107;1962011;-72
2021/06/29 03:59:47;;;;;;;9.12;5.48;;;;;;;20.76;62.63;99099.63;370679;108;1962009;-72
2021/06/29 04:00:52;;;;;;;8.93;5.02;;;;;;;20.84;62.20;99101.76;370818;109;1965109;-72
2021/06/29 04:02:00;;;;;;;8.39;5.38;;;;;;;20.89;61.94;99103.65;371512;108;1961996;-72
2021/06/29 04:03:12;;;;;;;9.97;4.97;;;;;;;21.04;61.75;99099.96;401206;104;1961972;-73
2021/06/29 04:04:18;;;;;;;8.97;4.91;;;;;;;20.96;61.52;99098.66;371841;108;1971783;-72
2021/06/29 04:05:23;;;;;;;9.79;5.24;;;;;;;20.94;61.61;99098.11;370782;106;1962048;-72
2021/06/29 04:06:38;;;;;;;11.12;5.75;;;;;;;21.07;61.57;99102.94;382941;106;2081994;-73
2021/06/29 04:07:50;;;;;;;10.27;5.75;;;;;;;20.99;61.35;99100.00;368616;107;1962077;-73
2021/06/29 04:08:58;;;;;;;10.51;5.38;;;;;;;21.00;61.23;99109.87;366382;107;1962992;-73
2021/06/29 04:10:11;;;;;;;8.69;5.23;;;;;;;21.09;61.20;99102.66;395499;104;1986947;-74
2021/06/29 04:11:17;;;;;;;8.78;5.18;;;;;;;20.98;61.31;99096.41;367980;109;1962025;-72
2021/06/29 04:12:29;;;;;;;8.89;5.04;;;;;;;21.10;61.29;99093.30;398772;104;1961924;-72
2021/06/29 04:13:35;;;;;;;7.89;4.71;;;;;;;20.99;61.29;99098.08;377766;105;1969057;-73
2021/06/29 04:14:58;;;;;;;7.63;5.28;;;;;;;20.97;61.45;99100.28;373395;106;1962842;-71
2021/06/29 04:16:04;;;;;;;8.81;5.44;;;;;;;20.96;61.54;99098.66;363775;105;2908879;-72
2021/06/29 04:17:10;;;;;;;8.31;5.29;;;;;;;20.98;61.65;99101.09;330875;105;2757069;-73
2021/06/29 04:18:22;;;;;;;7.52;4.98;;;;;;;21.12;61.68;99101.23;388110;103;2080045;-72
2021/06/29 04:19:27;;;;;;;13.09;5.74;;;;;;;21.04;61.47;99099.96;369207;107;1961983;-72
2021/06/29 04:20:40;;;;;;;11.30;5.28;;;;;;;21.19;61.47;99104.47;395537;104;1987015;-73
2021/06/29 04:21:45;;;;;;;10.94;5.82;;;;;;;21.12;61.41;99104.83;373862;107;1961807;-74
2021/06/29 04:22:57;;;;;;;10.04;5.14;;;;;;;21.27;61.22;99099.16;382419;108;1985976;-73
2021/06/29 04:24:05;;;;;;;12.65;5.71;;;;;;;21.21;60.98;99103.07;358382;112;1962014;-73
2021/06/29 04:25:28;;;;;;;11.58;5.93;;;;;;;21.24;60.91;99099.74;348474;114;1963882;-73
2021/06/29 04:26:34;;;;;;;13.67;6.66;;;;;;;21.31;60.79;99099.41;349563;114;1962871;-73
2021/06/29 04:27:46;;;;;;;8.40;4.60;;;;;;;21.48;60.38;99105.28;395839;104;1961935;-74
2021/06/29 04:28:52;;;;;;;9.98;5.71;;;;;;;21.40;60.06;99100.43;359680;109;2885947;-74
2021/06/29 04:30:07;;;;;;;9.69;5.73;;;;;;;21.54;60.29;99099.73;390659;104;2072912;-73
2021/06/29 04:31:13;;;;;;;10.44;5.39;;;;;;;21.45;60.17;99100.38;373683;107;1963043;-73
2021/06/29 04:32:36;;;;;;;11.23;5.51;;;;;;;21.48;59.82;99104.48;377425;107;1962007;-73
2021/06/29 04:33:42;;;;;;;10.29;5.95;;;;;;;21.44;59.66;99098.75;372886;107;1961996;-73
2021/06/29 04:34:54;;;;;;;9.18;5.19;;;;;;;21.55;59.76;99102.20;340658;104;2232958;-72
2021/06/29 04:36:00;;;;;;;10.73;5.84;;;;;;;21.42;59.83;99102.91;333045;107;2077041;-74
2021/06/29 04:37:06;;;;;;;8.51;5.32;;;;;;;21.40;59.98;99105.92;367183;107;1962894;-73
2021/06/29 04:38:11;;;;;;;7.53;4.83;;;;;;;21.36;60.17;99102.11;378583;107;1961978;-71
2021/06/29 04:39:23;;;;;;;11.21;5.73;;;;;;;21.45;60.13;99096.82;377974;108;2072959;-74
2021/06/29 04:40:31;;;;;;;12.08;5.68;;;;;;;21.33;60.19;99102.70;325040;110;2679938;-74
2021/06/29 04:41:44;;;;;;;9.24;5.69;;;;;;;21.39;60.57;99098.81;395865;104;1987033;-74
2021/06/29 04:42:49;;;;;;;9.00;5.05;;;;;;;21.26;60.54;99103.02;378952;106;1962039;-73
2021/06/29 04:43:54;;;;;;;8.07;5.26;;;;;;;21.24;60.61;99098.92;373982;106;1962052;-74
2021/06/29 04:45:07;;;;;;;7.68;5.45;;;;;;;21.33;60.68;99099.11;389171;104;2875973;-74
2021/06/29 04:46:13;;;;;;;12.53;5.16;;;;;;;21.15;60.99;99106.98;366316;107;1963765;-73
2021/06/29 04:47:25;;;;;;;9.69;6.13;;;;;;;21.21;60.83;99105.81;399169;101;2071948;-74
2021/06/29 04:48:31;;;;;;;11.59;6.08;;;;;;;21.08;60.85;99101.00;384296;103;1962040;-74
2021/06/29 04:49:55;;;;;;;12.99;6.24;;;;;;;21.04;61.06;99097.22;375583;105;1962062;-73
2021/06/29 04:51:01;;;;;;;11.27;5.71;;;;;;;21.00;61.15;99109.87;378375;105;1961976;-73
2021/06/29 04:52:14;;;;;;;9.98;5.84;;;;;;;20.58;61.37;99020.75;356339;104;2899956;-74
2021/06/29 04:53:19;;;;;;;12.08;6.23;;;;;;;20.95;61.61;99105.23;353804;105;1968944;-74
2021/06/29 04:54:32;;;;;;;13.10;5.93;;;;;;;20.54;61.53;99020.52;404537;101;1986062;-74
2021/06/29 04:55:37;;;;;;;12.66;5.68;;;;;;;20.94;61.56;99103.61;381690;105;1962005;-74
2021/06/29 04:57:02;;;;;;;11.81;5.89;;;;;;;20.88;61.60;99095.69;375596;103;1961983;-73
2021/06/29 04:58:07;;;;;;;11.35;5.71;;;;;;;20.95;61.41;99102.48;382664;103;1962094;-73
2021/06/29 04:59:12;;;;;;;11.47;5.76;;;;;;;20.97;61.54;99100.28;376434;107;1962001;-73
2021/06/29 05:00:25;;;;;;;9.35;5.64;;;;;;;21.12;61.52;99096.59;394085;104;1985027;-73
2021/06/29 05:01:31;;;;;;;13.18;5.75;;;;;;;21.01;61.50;99100.52;333680;107;2685041;-74
2021/06/29 05:02:44;;;;;;;13.89;5.84;;;;;;;21.16;61.61;99097.62;388401;102;1964895;-73
2021/06/29 05:03:51;;;;;;;10.92;5.43;;;;;;;21.13;61.46;99091.91;367194;108;1962948;-71
2021/06/29 05:04:56;;;;;;;9.83;5.28;;;;;;;21.22;61.26;99090.99;359523;103;2902093;-72
2021/06/29 05:06:11;;;;;;;10.79;5.61;;;;;;;21.26;61.00;99094.78;323626;110;2112964;-72
2021/06/29 05:07:17;;;;;;;9.67;5.31;;;;;;;21.30;60.84;99095.01;373790;106;1963972;-74
2021/06/29 05:08:29;;;;;;;8.81;5.52;;;;;;;21.47;60.54;99089.92;390259;104;2072845;-73
2021/06/29 05:09:34;;;;;;;12.04;5.90;;;;;;;21.40;60.47;99092.19;372656;107;1969021;-73
2021/06/29 05:10:40;;;;;;;12.33;5.86;;;;;;;21.45;60.48;99088.58;376238;107;1962916;-73
2021/06/29 05:11:55;;;;;;;10.43;5.44;;;;;;;21.51;60.27;99090.98;372198;107;1962900;-73
2021/06/29 05:13:01;;;;;;;9.48;5.43;;;;;;;21.56;60.13;99086.53;357435;111;1963884;-73
2021/06/29 05:14:08;;;;;;;11.68;5.77;;;;;;;21.62;60.11;99093.59;356373;112;1962082;-75
2021/06/29 05:15:14;;;;;;;9.02;5.53;;;;;;;21.68;60.09;99081.45;352570;112;1962024;-75
2021/06/29 05:16:26;;;;;;;9.41;6.01;;;;;;;21.85;59.31;99087.27;395881;104;2071883;-73
2021/06/29 05:17:32;;;;;;;9.74;5.39;;;;;;;21.78;59.16;99088.73;376745;106;1961980;-73
2021/06/29 05:18:37;;;;;;;9.74;5.66;;;;;;;21.83;59.26;99091.42;378700;106;1962018;-74
2021/06/29 05:19:50;;;;;;;9.23;5.77;;;;;;;22.00;59.09;99085.45;395926;104;1986917;-73
2021/06/29 05:20:57;;;;;;;11.06;5.54;;;;;;;21.94;58.98;99085.52;337023;106;2452862;-73
2021/06/29 05:22:09;;;;;;;9.29;5.23;;;;;;;22.10;58.81;99088.88;395356;104;1964028;-73
2021/06/29 05:23:14;;;;;;;10.33;5.80;;;;;;;22.03;58.69;99090.34;384010;105;1970004;-75
2021/06/29 05:24:37;;;;;;;11.01;4.91;;;;;;;22.05;58.63;99086.19;317186;107;2155946;-73
2021/06/29 05:25:43;;;;;;;11.40;5.24;;;;;;;22.10;58.40;99085.31;336641;109;1962089;-73
2021/06/29 05:26:50;;;;;;;11.56;5.88;;;;;;;22.06;58.45;99081.50;365876;108;1962036;-73
2021/06/29 05:27:56;;;;;;;10.66;5.43;;;;;;;22.14;58.20;99089.90;367797;108;1961993;-74
2021/06/29 05:29:08;;;;;;;9.48;5.40;;;;;;;22.26;58.33;99085.94;340713;106;2853047;-74
2021/06/29 05:30:15;;;;;;;8.99;5.64;;;;;;;22.18;58.33;99090.14;345122;108;1963075;-74